createdAt,value
2022-08-25T00:00:14.078Z,94901.59
2022-08-25T00:02:43.830Z,94897.88
2022-08-25T00:05:26.244Z,94894.88
2022-08-25T00:07:54.518Z,94888.50
2022-08-25T00:10:21.755Z,94900.75
2022-08-25T00:12:48.455Z,94899.88
2022-08-25T00:15:15.644Z,94892.78
2022-08-25T00:17:42.532Z,94897.19
2022-08-25T00:20:10.227Z,94892.59
2022-08-25T00:22:36.887Z,94894.56
2022-08-25T00:25:04.008Z,94898.81
2022-08-25T00:27:31.056Z,94905.72
2022-08-25T00:29:57.636Z,94898.28
2022-08-25T00:32:25.595Z,94895.44
2022-08-25T00:34:52.265Z,94901.81
2022-08-25T00:37:19.368Z,94892.06
2022-08-25T00:39:46.313Z,94895.25
2022-08-25T00:42:15.993Z,94882.31
2022-08-25T00:44:43.975Z,94890.09
2022-08-25T00:47:11.098Z,94889.22
2022-08-25T00:49:49.554Z,94883.34
2022-08-25T00:52:32.581Z,94881.06
2022-08-25T00:55:08.224Z,94882.09
2022-08-25T00:57:43.246Z,94878.56
2022-08-25T01:00:14.290Z,94881.75
2022-08-25T01:02:40.994Z,94878.75
2022-08-25T01:05:08.247Z,94881.03
2022-08-25T01:07:36.492Z,94880.50
2022-08-25T01:10:04.922Z,94882.75
2022-08-25T01:12:31.550Z,94874.44
2022-08-25T01:14:59.138Z,94872.84
2022-08-25T01:17:28.360Z,94870.69
2022-08-25T01:19:55.914Z,94876.38
2022-08-25T01:22:22.686Z,94871.41
2022-08-25T01:25:04.029Z,94874.59
2022-08-25T01:27:30.727Z,94870.34
2022-08-25T01:29:58.066Z,94868.53
2022-08-25T01:32:25.307Z,94862.34
2022-08-25T01:34:52.088Z,94857.56
2022-08-25T01:37:19.297Z,94860.00
2022-08-25T01:39:46.665Z,94858.25
2022-08-25T01:42:19.999Z,94860.22
2022-08-25T01:44:48.069Z,94858.94
2022-08-25T01:47:16.074Z,94857.31
2022-08-25T01:49:43.045Z,94857.13
2022-08-25T01:52:19.344Z,94868.81
2022-08-25T01:54:47.972Z,94859.94
2022-08-25T01:57:16.014Z,94858.84
2022-08-25T01:59:42.899Z,94862.75
2022-08-25T02:02:09.904Z,94855.66
2022-08-25T02:04:38.229Z,94856.16
2022-08-25T02:07:07.965Z,94859.19
2022-08-25T02:09:36.483Z,94858.28
2022-08-25T02:12:04.362Z,94862.66
2022-08-25T02:14:31.055Z,94867.28
2022-08-25T02:16:57.767Z,94863.03
2022-08-25T02:19:26.047Z,94858.72
2022-08-25T02:21:53.414Z,94867.06
2022-08-25T02:24:20.197Z,94857.66
2022-08-25T02:26:46.973Z,94858.00
2022-08-25T02:29:13.942Z,94862.56
2022-08-25T02:31:41.101Z,94853.75
2022-08-25T02:34:09.212Z,94856.53
2022-08-25T02:36:37.441Z,94853.69
2022-08-25T02:39:05.983Z,94849.44
2022-08-25T02:41:33.695Z,94847.63
2022-08-25T02:44:02.389Z,94840.19
2022-08-25T02:46:29.747Z,94848.69
2022-08-25T02:48:56.944Z,94846.34
2022-08-25T02:51:25.567Z,94845.44
2022-08-25T02:53:52.761Z,94845.06
2022-08-25T02:56:20.726Z,94851.41
2022-08-25T02:58:48.088Z,94844.50
2022-08-25T03:01:16.293Z,94839.69
2022-08-25T03:03:45.856Z,94841.25
2022-08-25T03:06:17.077Z,94837.00
2022-08-25T03:08:44.567Z,94841.41
2022-08-25T03:11:11.875Z,94835.91
2022-08-25T03:13:38.796Z,94836.25
2022-08-25T03:16:10.779Z,94837.47
2022-08-25T03:18:39.973Z,94837.06
2022-08-25T03:21:07.607Z,94830.16
2022-08-25T03:23:34.268Z,94828.75
2022-08-25T03:26:19.364Z,94831.22
2022-08-25T03:28:46.030Z,94832.03
2022-08-25T03:31:15.610Z,94837.69
2022-08-25T03:33:43.194Z,94832.16
2022-08-25T03:36:12.190Z,94832.66
2022-08-25T03:38:39.905Z,94828.94
2022-08-25T03:41:16.343Z,94832.28
2022-08-25T03:43:43.259Z,94834.53
2022-08-25T03:46:16.677Z,94835.78
2022-08-25T03:48:43.785Z,94838.03
2022-08-25T03:51:10.435Z,94849.47
2022-08-25T03:53:37.167Z,94840.63
2022-08-25T03:56:04.581Z,94847.66
2022-08-25T03:58:31.306Z,94847.50
2022-08-25T04:01:00.512Z,94839.34
2022-08-25T04:03:27.436Z,94841.28
2022-08-25T04:05:54.100Z,94844.22
2022-08-25T04:08:23.420Z,94841.19
2022-08-25T04:10:50.047Z,94840.47
2022-08-25T04:13:16.704Z,94840.97
2022-08-25T04:15:43.967Z,94834.97
2022-08-25T04:18:11.728Z,94832.66
2022-08-25T04:20:38.879Z,94829.06
2022-08-25T04:23:07.108Z,94832.25
2022-08-25T04:25:33.884Z,94834.72
2022-08-25T04:28:00.523Z,94839.06
2022-08-25T04:30:27.195Z,94840.81
2022-08-25T04:32:53.956Z,94832.47
2022-08-25T04:35:21.357Z,94836.16
2022-08-25T04:37:49.013Z,94832.81
2022-08-25T04:40:15.801Z,94832.09
2022-08-25T04:42:42.587Z,94825.38
2022-08-25T04:45:09.424Z,94830.97
2022-08-25T04:47:40.028Z,94830.97
2022-08-25T04:50:07.787Z,94836.09
2022-08-25T04:52:34.642Z,94835.88
2022-08-25T04:55:01.494Z,94837.63
2022-08-25T04:57:28.381Z,94831.78
2022-08-25T04:59:55.671Z,94831.78
2022-08-25T05:02:23.000Z,94835.13
2022-08-25T05:04:49.638Z,94832.31
2022-08-25T05:07:16.378Z,94838.81
2022-08-25T05:09:43.074Z,94841.47
2022-08-25T05:12:09.896Z,94846.06
2022-08-25T05:14:38.797Z,94846.78
2022-08-25T05:17:08.975Z,94853.28
2022-08-25T05:19:36.527Z,94844.13
2022-08-25T05:22:03.418Z,94851.34
2022-08-25T05:24:30.170Z,94850.13
2022-08-25T05:26:57.732Z,94849.63
2022-08-25T05:29:24.466Z,94848.22
2022-08-25T05:31:51.240Z,94844.34
2022-08-25T05:34:19.477Z,94852.47
2022-08-25T05:36:46.741Z,94843.06
2022-08-25T05:39:13.456Z,94844.03
2022-08-25T05:41:40.665Z,94844.72
2022-08-25T05:44:07.726Z,94841.56
2022-08-25T05:46:34.496Z,94842.28
2022-08-25T05:49:01.112Z,94837.91
2022-08-25T05:51:27.889Z,94828.91
2022-08-25T05:53:54.823Z,94826.47
2022-08-25T05:56:21.664Z,94829.34
2022-08-25T05:58:48.513Z,94829.03
2022-08-25T06:01:45.146Z,94829.03
2022-08-25T06:04:12.946Z,94833.09
2022-08-25T06:06:40.466Z,94830.63
2022-08-25T06:09:09.744Z,94836.31
2022-08-25T06:11:40.864Z,94834.59
2022-08-25T06:14:11.208Z,94826.31
2022-08-25T06:16:40.690Z,94826.00
2022-08-25T06:19:11.394Z,94831.50
2022-08-25T06:21:40.933Z,94829.22
2022-08-25T06:24:14.715Z,94829.13
2022-08-25T06:26:42.409Z,94830.75
2022-08-25T06:29:09.008Z,94827.78
2022-08-25T06:31:35.737Z,94825.50
2022-08-25T06:34:02.457Z,94823.44
2022-08-25T06:36:29.115Z,94826.47
2022-08-25T06:38:55.717Z,94836.75
2022-08-25T06:41:22.663Z,94824.34
2022-08-25T06:43:54.130Z,94829.69
2022-08-25T06:46:35.877Z,94828.63
2022-08-25T06:49:04.905Z,94823.59
2022-08-25T06:51:31.797Z,94822.19
2022-08-25T06:53:58.613Z,94826.78
2022-08-25T06:56:25.787Z,94823.00
2022-08-25T06:58:53.572Z,94820.19
2022-08-25T07:01:27.223Z,94815.56
2022-08-25T07:03:59.923Z,94821.13
2022-08-25T07:06:31.903Z,94816.06
2022-08-25T07:08:59.603Z,94813.78
2022-08-25T07:11:26.534Z,94818.97
2022-08-25T07:13:53.376Z,94826.28
2022-08-25T07:16:20.857Z,94816.25
2022-08-25T07:18:48.175Z,94814.81
2022-08-25T07:21:15.627Z,94823.16
2022-08-25T07:23:42.876Z,94817.34
2022-08-25T07:26:36.350Z,94822.31
2022-08-25T07:29:09.971Z,94826.03
2022-08-25T07:31:37.560Z,94828.34
2022-08-25T07:34:23.229Z,94828.75
2022-08-25T07:36:49.892Z,94827.66
2022-08-25T07:39:17.557Z,94824.50
2022-08-25T07:41:52.436Z,94831.94
2022-08-25T07:44:20.403Z,94823.81
2022-08-25T07:46:47.145Z,94818.88
2022-08-25T07:52:04.390Z,94812.53
2022-08-25T07:54:34.551Z,94809.00
2022-08-25T07:57:03.487Z,94809.91
2022-08-25T07:59:31.211Z,94804.44
2022-08-25T08:02:18.362Z,94807.66
2022-08-25T08:04:49.320Z,94808.72
2022-08-25T08:07:18.700Z,94801.81
2022-08-25T08:09:45.655Z,94804.13
2022-08-25T08:12:12.495Z,94806.63
2022-08-25T08:14:39.576Z,94796.34
2022-08-25T08:17:12.750Z,94808.03
2022-08-25T08:19:43.082Z,94803.78
2022-08-25T08:22:15.109Z,94797.59
2022-08-25T08:24:56.133Z,94798.13
2022-08-25T08:27:24.544Z,94792.44
2022-08-25T08:29:52.077Z,94788.03
2022-08-25T08:32:18.851Z,94791.19
2022-08-25T08:34:47.087Z,94801.66
2022-08-25T08:37:18.626Z,94789.97
2022-08-25T08:39:47.876Z,94797.03
2022-08-25T08:42:33.310Z,94803.25
2022-08-25T08:45:21.320Z,94805.19
2022-08-25T08:48:10.329Z,94803.78
2022-08-25T08:50:51.773Z,94800.91
2022-08-25T08:53:21.658Z,94807.09
2022-08-25T08:55:52.820Z,94803.69
2022-08-25T08:58:32.977Z,94802.06
2022-08-25T09:01:01.834Z,94803.13
2022-08-25T09:03:41.839Z,94797.22
2022-08-25T09:06:14.415Z,94796.16
2022-08-25T09:08:44.960Z,94795.78
2022-08-25T09:11:12.212Z,94789.69
2022-08-25T09:14:01.500Z,94787.66
2022-08-25T09:16:56.309Z,94786.22
2022-08-25T09:19:23.869Z,94788.81
2022-08-25T09:22:33.911Z,94789.63
2022-08-25T09:25:53.245Z,94785.91
2022-08-25T09:28:39.853Z,94772.72
2022-08-25T09:31:19.701Z,94772.47
2022-08-25T09:33:46.574Z,94773.63
2022-08-25T09:36:13.872Z,94768.50
2022-08-25T09:38:41.417Z,94770.00
2022-08-25T09:41:08.928Z,94773.16
2022-08-25T09:43:40.432Z,94770.03
2022-08-25T09:46:16.124Z,94767.13
2022-08-25T09:48:45.306Z,94765.50
2022-08-25T09:51:23.809Z,94766.81
2022-08-25T09:54:02.810Z,94768.53
2022-08-25T09:56:50.664Z,94762.81
2022-08-25T09:59:34.444Z,94755.31
2022-08-25T10:02:26.443Z,94751.59
2022-08-25T10:04:54.698Z,94744.47
2022-08-25T10:07:26.770Z,94744.34
2022-08-25T10:10:01.179Z,94748.50
2022-08-25T10:12:42.338Z,94746.44
2022-08-25T10:15:17.215Z,94743.22
2022-08-25T10:18:20.171Z,94741.84
2022-08-25T10:21:08.376Z,94740.19
2022-08-25T10:23:38.867Z,94735.22
2022-08-25T10:26:13.449Z,94733.66
2022-08-25T10:29:06.928Z,94737.06
2022-08-25T10:31:41.285Z,94733.19
2022-08-25T10:34:51.623Z,94729.97
2022-08-25T10:37:26.393Z,94716.91
2022-08-25T10:40:28.529Z,94716.78
2022-08-25T10:43:35.797Z,94714.69
2022-08-25T10:46:16.512Z,94712.19
2022-08-25T10:49:16.405Z,94722.44
2022-08-25T10:52:00.396Z,94710.78
2022-08-25T10:54:45.654Z,94711.06
2022-08-25T10:57:30.747Z,94707.25
2022-08-25T11:00:07.979Z,94703.03
2022-08-25T11:02:57.278Z,94707.69
2022-08-25T11:05:45.415Z,94703.44
2022-08-25T11:08:20.014Z,94705.69
2022-08-25T11:11:13.165Z,94704.56
2022-08-25T11:14:21.147Z,94704.50
2022-08-25T11:17:11.996Z,94713.63
2022-08-25T11:19:43.984Z,94701.88
2022-08-25T11:22:19.360Z,94698.44
2022-08-25T11:25:00.027Z,94693.59
2022-08-25T11:27:42.294Z,94689.78
2022-08-25T11:30:16.665Z,94699.88
2022-08-25T11:32:49.329Z,94699.53
2022-08-25T11:35:19.290Z,94702.75
2022-08-25T11:37:57.342Z,94696.63
2022-08-25T11:40:53.633Z,94695.41
2022-08-25T11:43:50.835Z,94693.84
2022-08-25T11:46:26.153Z,94697.97
2022-08-25T11:49:15.304Z,94694.06
2022-08-25T11:51:48.378Z,94699.81
2022-08-25T11:54:43.094Z,94690.75
2022-08-25T11:57:22.226Z,94700.44
2022-08-25T11:59:55.826Z,94699.44
2022-08-25T12:02:40.855Z,94694.66
2022-08-25T12:05:15.580Z,94699.31
2022-08-25T12:07:52.355Z,94694.84
2022-08-25T12:10:22.843Z,94687.03
2022-08-25T12:12:49.441Z,94694.53
2022-08-25T12:15:32.805Z,94693.50
2022-08-25T12:18:21.919Z,94684.75
2022-08-25T12:20:57.489Z,94689.44
2022-08-25T12:23:34.694Z,94689.88
2022-08-25T12:26:11.160Z,94691.63
2022-08-25T12:28:55.906Z,94687.00
2022-08-25T12:31:43.133Z,94683.81
2022-08-25T12:34:26.819Z,94677.97
2022-08-25T12:37:06.489Z,94684.50
2022-08-25T12:39:43.099Z,94675.50
2022-08-25T12:42:26.162Z,94672.22
2022-08-25T12:45:14.119Z,94665.22
2022-08-25T12:47:47.546Z,94662.56
2022-08-25T12:50:36.414Z,94662.88
2022-08-25T12:53:16.003Z,94661.31
2022-08-25T12:55:49.530Z,94667.75
2022-08-25T12:58:17.065Z,94665.50
2022-08-25T13:01:13.293Z,94667.19
2022-08-25T13:04:41.986Z,94665.06
2022-08-25T13:07:15.495Z,94663.06
2022-08-25T13:10:01.915Z,94658.97
2022-08-25T13:12:51.287Z,94656.63
2022-08-25T13:15:47.014Z,94650.75
2022-08-25T13:18:21.541Z,94653.78
2022-08-25T13:20:52.719Z,94648.09
2022-08-25T13:23:25.886Z,94646.91
2022-08-25T13:25:54.542Z,94641.00
2022-08-25T13:28:29.836Z,94646.59
2022-08-25T13:31:00.128Z,94638.44
2022-08-25T13:33:27.912Z,94634.84
2022-08-25T13:36:15.509Z,94631.34
2022-08-25T13:38:45.928Z,94629.75
2022-08-25T13:41:23.441Z,94631.34
2022-08-25T13:43:56.578Z,94635.75
2022-08-25T13:46:27.831Z,94629.13
2022-08-25T13:49:07.001Z,94633.84
2022-08-25T13:51:37.093Z,94623.53
2022-08-25T13:54:08.476Z,94627.50
2022-08-25T13:56:41.142Z,94624.91
2022-08-25T13:59:25.772Z,94621.63
2022-08-25T14:01:54.606Z,94614.63
2022-08-25T14:04:26.419Z,94615.88
2022-08-25T14:07:13.930Z,94621.94
2022-08-25T14:09:48.899Z,94624.81
2022-08-25T14:12:33.768Z,94621.91
2022-08-25T14:15:01.607Z,94620.09
2022-08-25T14:17:39.707Z,94624.09
2022-08-25T14:20:29.274Z,94626.56
2022-08-25T14:22:59.463Z,94629.19
2022-08-25T14:25:32.661Z,94616.84
2022-08-25T14:28:07.248Z,94619.66
2022-08-25T14:30:39.318Z,94615.81
2022-08-25T14:33:06.956Z,94615.28
2022-08-25T14:35:34.373Z,94614.59
2022-08-25T14:38:07.658Z,94607.25
2022-08-25T14:40:35.562Z,94607.59
2022-08-25T14:43:02.442Z,94613.69
2022-08-25T14:45:31.314Z,94610.13
2022-08-25T14:48:10.210Z,94608.22
2022-08-25T14:50:38.224Z,94599.91
2022-08-25T14:53:10.392Z,94608.34
2022-08-25T14:55:37.756Z,94605.28
2022-08-25T14:58:04.748Z,94600.81
2022-08-25T15:00:36.813Z,94598.44
2022-08-25T15:03:03.970Z,94594.72
2022-08-25T15:05:31.881Z,94596.81
2022-08-25T15:08:17.182Z,94595.19
2022-08-25T15:10:44.264Z,94595.28
2022-08-25T15:13:11.087Z,94590.03
2022-08-25T15:15:52.558Z,94585.56
2022-08-25T15:18:20.880Z,94582.94
2022-08-25T15:20:50.183Z,94584.53
2022-08-25T15:23:18.776Z,94579.75
2022-08-25T15:25:47.405Z,94583.53
2022-08-25T15:28:17.284Z,94579.72
2022-08-25T15:30:45.942Z,94583.16
2022-08-25T15:33:13.627Z,94583.34
2022-08-25T15:35:40.622Z,94581.75
2022-08-25T15:38:08.201Z,94580.13
2022-08-25T15:40:37.630Z,94582.28
2022-08-25T15:43:07.772Z,94579.53
2022-08-25T15:45:36.222Z,94579.72
2022-08-25T15:48:04.495Z,94569.88
2022-08-25T15:50:33.840Z,94573.63
2022-08-25T15:53:00.788Z,94573.22
2022-08-25T15:55:28.067Z,94579.56
2022-08-25T15:57:55.661Z,94577.41
2022-08-25T16:00:22.894Z,94570.06
2022-08-25T16:02:50.256Z,94573.16
2022-08-25T16:05:17.071Z,94568.44
2022-08-25T16:07:46.087Z,94569.22
2022-08-25T16:10:18.706Z,94563.69
2022-08-25T16:12:45.517Z,94558.28
2022-08-25T16:15:12.494Z,94562.25
2022-08-25T16:17:40.962Z,94566.72
2022-08-25T16:20:13.739Z,94570.72
2022-08-25T16:22:41.043Z,94566.41
2022-08-25T16:25:08.528Z,94566.63
2022-08-25T16:27:38.712Z,94561.22
2022-08-25T16:30:08.156Z,94561.38
2022-08-25T16:32:35.084Z,94556.94
2022-08-25T16:35:02.628Z,94555.69
2022-08-25T16:37:29.948Z,94550.09
2022-08-25T16:39:57.408Z,94558.88
2022-08-25T16:42:24.538Z,94554.31
2022-08-25T16:44:53.833Z,94556.28
2022-08-25T16:47:25.177Z,94556.94
2022-08-25T16:49:53.719Z,94556.25
2022-08-25T16:52:39.282Z,94547.28
2022-08-25T16:55:14.362Z,94549.22
2022-08-25T16:57:47.782Z,94552.53
2022-08-25T17:00:18.158Z,94547.00
2022-08-25T17:02:46.309Z,94548.28
2022-08-25T17:05:14.750Z,94542.72
2022-08-25T17:07:41.536Z,94549.38
2022-08-25T17:10:12.432Z,94544.53
2022-08-25T17:12:40.555Z,94547.81
2022-08-25T17:15:07.641Z,94543.59
2022-08-25T17:17:36.463Z,94540.03
2022-08-25T17:20:04.820Z,94538.56
2022-08-25T17:22:31.845Z,94542.44
2022-08-25T17:25:00.974Z,94532.13
2022-08-25T17:27:28.255Z,94540.72
2022-08-25T17:29:55.947Z,94538.47
2022-08-25T17:32:30.210Z,94543.69
2022-08-25T17:34:57.739Z,94548.16
2022-08-25T17:37:24.681Z,94554.03
2022-08-25T17:39:56.735Z,94548.38
2022-08-25T17:42:31.368Z,94561.66
2022-08-25T17:44:58.283Z,94564.13
2022-08-25T17:47:26.899Z,94560.47
2022-08-25T17:49:54.330Z,94558.19
2022-08-25T17:52:25.400Z,94555.25
2022-08-25T17:54:52.691Z,94556.97
2022-08-25T17:57:20.732Z,94561.41
2022-08-25T17:59:48.031Z,94559.88
2022-08-25T18:02:14.885Z,94560.94
2022-08-25T18:04:41.731Z,94559.38
2022-08-25T18:07:08.493Z,94565.78
2022-08-25T18:09:35.254Z,94556.13
2022-08-25T18:12:02.132Z,94561.88
2022-08-25T18:14:30.054Z,94567.00
2022-08-25T18:16:57.306Z,94571.44
2022-08-25T18:19:24.206Z,94571.66
2022-08-25T18:21:51.848Z,94574.00
2022-08-25T18:24:19.516Z,94571.03
2022-08-25T18:26:46.883Z,94576.84
2022-08-25T18:29:13.576Z,94575.78
2022-08-25T18:31:41.756Z,94570.88
2022-08-25T18:34:11.166Z,94580.69
2022-08-25T18:36:38.833Z,94576.91
2022-08-25T18:39:25.361Z,94572.03
2022-08-25T18:41:52.187Z,94576.44
2022-08-25T18:44:19.325Z,94573.34
2022-08-25T18:46:46.571Z,94575.84
2022-08-25T18:49:16.135Z,94572.84
2022-08-25T18:51:44.953Z,94575.88
2022-08-25T18:54:23.212Z,94571.19
2022-08-25T18:56:52.639Z,94575.78
2022-08-25T18:59:19.974Z,94575.47
2022-08-25T19:01:50.985Z,94575.38
2022-08-25T19:04:17.693Z,94581.25
2022-08-25T19:06:44.837Z,94578.28
2022-08-25T19:09:11.854Z,94579.34
2022-08-25T19:11:38.657Z,94579.75
2022-08-25T19:14:12.178Z,94575.94
2022-08-25T19:16:42.458Z,94574.22
2022-08-25T19:19:13.242Z,94581.06
2022-08-25T19:21:41.094Z,94573.28
2022-08-25T19:24:10.154Z,94576.47
2022-08-25T19:26:37.600Z,94582.03
2022-08-25T19:29:08.911Z,94575.03
2022-08-25T19:31:39.325Z,94582.69
2022-08-25T19:34:07.513Z,94582.34
2022-08-25T19:36:34.573Z,94584.72
2022-08-25T19:39:01.995Z,94581.69
2022-08-25T19:41:31.285Z,94585.44
2022-08-25T19:43:58.457Z,94583.13
2022-08-25T19:46:32.655Z,94592.84
2022-08-25T19:49:09.590Z,94589.22
2022-08-25T19:51:38.431Z,94598.84
2022-08-25T19:54:09.281Z,94595.84
2022-08-25T19:56:43.592Z,94589.41
2022-08-25T19:59:22.347Z,94593.75
2022-08-25T20:01:50.209Z,94588.72
2022-08-25T20:04:17.192Z,94592.22
2022-08-25T20:06:43.921Z,94592.59
2022-08-25T20:09:29.343Z,94590.28
2022-08-25T20:12:02.199Z,94589.91
2022-08-25T20:14:29.235Z,94586.78
2022-08-25T20:16:55.862Z,94591.78
2022-08-25T20:19:22.552Z,94592.25
2022-08-25T20:21:49.248Z,94592.00
2022-08-25T20:24:34.264Z,94597.03
2022-08-25T20:27:01.485Z,94598.78
2022-08-25T20:29:29.667Z,94595.16
2022-08-25T20:31:56.478Z,94600.97
2022-08-25T20:34:23.204Z,94602.03
2022-08-25T20:36:50.781Z,94596.41
2022-08-25T20:39:18.070Z,94594.66
2022-08-25T20:41:48.256Z,94600.47
2022-08-25T20:44:16.396Z,94602.91
2022-08-25T20:46:44.696Z,94608.75
2022-08-25T20:49:11.844Z,94613.16
2022-08-25T20:51:38.666Z,94612.09
2022-08-25T20:54:05.624Z,94601.25
2022-08-25T20:56:32.531Z,94608.34
2022-08-25T20:59:02.196Z,94608.66
2022-08-25T21:01:39.788Z,94605.03
2022-08-25T21:04:15.344Z,94606.19
2022-08-25T21:06:43.019Z,94605.81
2022-08-25T21:09:16.075Z,94602.28
2022-08-25T21:11:45.034Z,94601.78
2022-08-25T21:14:12.887Z,94608.88
2022-08-25T21:16:40.978Z,94606.75
2022-08-25T21:19:08.841Z,94605.09
2022-08-25T21:21:38.684Z,94594.00
2022-08-25T21:24:09.824Z,94597.81
2022-08-25T21:26:37.820Z,94601.41
2022-08-25T21:29:16.083Z,94603.00
2022-08-25T21:31:42.945Z,94600.75
2022-08-25T21:34:11.659Z,94604.59
2022-08-25T21:36:39.329Z,94606.88
2022-08-25T21:39:06.118Z,94603.22
2022-08-25T21:41:34.618Z,94600.16
2022-08-25T21:44:01.992Z,94598.47
2022-08-25T21:46:31.230Z,94601.59
2022-08-25T21:48:58.707Z,94600.63
2022-08-25T21:51:32.342Z,94605.16
2022-08-25T21:54:11.065Z,94596.03
2022-08-25T21:56:39.671Z,94600.53
2022-08-25T21:59:08.720Z,94606.91
2022-08-25T22:01:35.721Z,94609.31
2022-08-25T22:04:03.385Z,94607.63
2022-08-25T22:06:30.409Z,94599.91
2022-08-25T22:08:57.884Z,94598.94
2022-08-25T22:11:26.639Z,94602.03
2022-08-25T22:13:55.047Z,94601.75
2022-08-25T22:16:24.576Z,94603.47
2022-08-25T22:18:51.772Z,94597.81
2022-08-25T22:21:20.214Z,94596.28
2022-08-25T22:23:46.849Z,94602.63
2022-08-25T22:26:17.399Z,94594.19
2022-08-25T22:28:49.388Z,94598.03
2022-08-25T22:31:20.567Z,94590.25
2022-08-25T22:33:48.816Z,94592.66
2022-08-25T22:36:24.776Z,94601.13
2022-08-25T22:38:52.623Z,94587.34
2022-08-25T22:41:21.422Z,94593.81
2022-08-25T22:43:49.747Z,94589.44
2022-08-25T22:46:19.521Z,94589.88
2022-08-25T22:48:46.675Z,94584.09
2022-08-25T22:51:23.198Z,94592.66
2022-08-25T22:53:50.711Z,94597.03
2022-08-25T22:56:20.920Z,94598.16
2022-08-25T22:58:51.427Z,94593.09
2022-08-25T23:01:20.103Z,94592.81
2022-08-25T23:03:47.704Z,94592.69
2022-08-25T23:06:20.715Z,94587.03
2022-08-25T23:08:50.293Z,94581.41
2022-08-25T23:11:18.308Z,94587.31
2022-08-25T23:13:45.682Z,94580.97
2022-08-25T23:16:13.158Z,94582.66
2022-08-25T23:18:43.982Z,94577.72
2022-08-25T23:21:35.005Z,94578.84
2022-08-25T23:24:05.613Z,94582.50
2022-08-25T23:26:36.381Z,94571.53
2022-08-25T23:29:13.621Z,94570.69
2022-08-25T23:31:45.065Z,94579.53
2022-08-25T23:34:11.900Z,94577.81
2022-08-25T23:36:40.355Z,94582.56
2022-08-25T23:39:07.866Z,94575.13
2022-08-25T23:41:34.980Z,94574.44
2022-08-25T23:44:05.622Z,94565.56
2022-08-25T23:46:35.080Z,94570.44
2022-08-25T23:49:03.968Z,94569.63
2022-08-25T23:51:37.219Z,94567.47
2022-08-25T23:54:06.497Z,94557.94
2022-08-25T23:56:36.070Z,94563.66
2022-08-25T23:59:04.366Z,94562.06
